createdAt,value
2023-03-21T00:00:23.122Z,20.93
2023-03-21T00:03:13.030Z,20.58
2023-03-21T00:05:45.803Z,21.57
2023-03-21T00:08:15.866Z,21.14
2023-03-21T00:10:45.997Z,18.87
2023-03-21T00:13:16.550Z,19.88
2023-03-21T00:16:16.116Z,20.79
2023-03-21T00:18:47.253Z,21.64
2023-03-21T00:24:09.142Z,20.51
2023-03-21T00:26:38.673Z,20.53
2023-03-21T00:29:08.481Z,21.25
2023-03-21T00:31:39.253Z,21.51
2023-03-21T00:34:09.358Z,20.86
2023-03-21T00:36:39.298Z,21.40
2023-03-21T00:39:10.036Z,21.00
2023-03-21T00:41:43.255Z,20.41
2023-03-21T00:44:15.997Z,20.56
2023-03-21T00:47:00.752Z,20.56
2023-03-21T00:49:38.662Z,19.88
2023-03-21T00:52:18.582Z,21.30
2023-03-21T00:54:54.314Z,21.18
2023-03-21T00:57:37.534Z,21.61
2023-03-21T01:00:11.917Z,22.10
2023-03-21T01:03:11.522Z,22.23
2023-03-21T01:06:06.054Z,22.19
2023-03-21T01:08:52.101Z,20.81
2023-03-21T01:11:25.038Z,21.53
2023-03-21T01:14:04.091Z,21.74
2023-03-21T01:16:34.258Z,21.86
2023-03-21T01:19:09.304Z,22.03
2023-03-21T01:21:41.957Z,20.90
2023-03-21T01:24:12.051Z,21.49
2023-03-21T01:26:42.404Z,21.08
2023-03-21T01:29:12.012Z,21.19
2023-03-21T01:31:41.669Z,21.75
2023-03-21T01:34:12.728Z,21.96
2023-03-21T01:36:42.610Z,22.08
2023-03-21T01:39:17.430Z,22.18
2023-03-21T01:41:49.658Z,21.99
2023-03-21T01:44:25.301Z,21.80
2023-03-21T01:47:12.434Z,20.88
2023-03-21T01:49:51.344Z,21.44
2023-03-21T01:52:36.948Z,21.93
2023-03-21T01:55:13.595Z,21.21
2023-03-21T01:58:12.812Z,21.76
2023-03-21T02:01:12.061Z,21.63
2023-03-21T02:03:53.933Z,21.56
2023-03-21T02:06:41.403Z,20.74
2023-03-21T02:09:52.142Z,20.93
2023-03-21T02:12:24.216Z,21.39
2023-03-21T02:14:56.364Z,21.29
2023-03-21T02:17:57.612Z,21.27
2023-03-21T02:21:12.704Z,22.10
2023-03-21T02:24:37.960Z,22.28
2023-03-21T02:27:18.884Z,22.12
2023-03-21T02:30:30.427Z,21.59
2023-03-21T02:33:48.171Z,21.87
2023-03-21T02:36:27.078Z,21.53
2023-03-21T02:39:09.095Z,21.82
2023-03-21T02:41:48.477Z,21.21
2023-03-21T02:44:25.707Z,22.19
2023-03-21T02:47:06.071Z,22.20
2023-03-21T02:49:45.393Z,21.11
2023-03-21T02:52:35.435Z,21.29
2023-03-21T02:55:13.895Z,21.26
2023-03-21T02:57:52.578Z,21.38
2023-03-21T03:00:25.725Z,21.96
2023-03-21T03:03:08.153Z,21.87
2023-03-21T03:05:45.417Z,21.29
2023-03-21T03:08:37.556Z,21.02
2023-03-21T03:11:24.127Z,21.07
2023-03-21T03:14:40.147Z,21.33
2023-03-21T03:17:21.777Z,19.40
2023-03-21T03:20:15.500Z,20.32
2023-03-21T03:22:56.479Z,20.49
2023-03-21T03:25:42.005Z,20.59
2023-03-21T03:28:19.247Z,21.03
2023-03-21T03:36:06.372Z,21.17
2023-03-21T03:38:40.202Z,20.20
2023-03-21T03:41:14.790Z,20.98
2023-03-21T03:43:56.405Z,20.61
2023-03-21T03:46:34.277Z,20.71
2023-03-21T03:49:09.142Z,20.20
2023-03-21T03:51:45.411Z,20.76
2023-03-21T03:54:32.366Z,20.43
2023-03-21T03:57:04.548Z,20.51
2023-03-21T03:59:38.974Z,20.79
2023-03-21T04:02:47.156Z,19.94
2023-03-21T04:05:21.962Z,20.18
2023-03-21T04:07:51.909Z,20.23
2023-03-21T04:10:28.440Z,19.08
2023-03-21T04:12:57.642Z,19.49
2023-03-21T04:16:00.572Z,19.14
2023-03-21T04:18:30.244Z,19.49
2023-03-21T04:21:00.512Z,19.48
2023-03-21T04:23:32.567Z,19.45
2023-03-21T04:26:02.135Z,19.39
2023-03-21T04:28:37.948Z,18.39
2023-03-21T04:31:25.616Z,19.03
2023-03-21T04:34:05.933Z,19.07
2023-03-21T04:36:39.232Z,19.44
2023-03-21T04:39:12.627Z,19.70
2023-03-21T04:41:43.680Z,19.39
2023-03-21T04:44:14.058Z,19.80
2023-03-21T04:46:45.375Z,19.63
2023-03-21T04:49:15.590Z,19.23
2023-03-21T04:51:46.393Z,19.75
2023-03-21T04:54:21.104Z,19.84
2023-03-21T04:56:52.237Z,19.87
2023-03-21T04:59:22.189Z,19.80
2023-03-21T05:01:53.735Z,19.83
2023-03-21T05:04:23.078Z,19.74
2023-03-21T05:06:52.856Z,19.91
2023-03-21T05:09:22.912Z,20.04
2023-03-21T05:11:53.090Z,20.21
2023-03-21T05:14:25.064Z,20.33
2023-03-21T05:16:57.483Z,20.51
2023-03-21T05:19:35.050Z,20.26
2023-03-21T05:22:08.244Z,20.43
2023-03-21T05:24:39.334Z,19.72
2023-03-21T05:27:14.255Z,19.42
2023-03-21T05:29:47.901Z,19.37
2023-03-21T05:32:20.098Z,19.80
2023-03-21T05:34:49.532Z,19.93
2023-03-21T05:37:20.816Z,19.29
2023-03-21T05:39:52.384Z,19.93
2023-03-21T05:42:27.950Z,19.26
2023-03-21T05:44:57.588Z,18.89
2023-03-21T05:47:36.851Z,18.60
2023-03-21T05:50:07.409Z,18.09
2023-03-21T05:52:37.529Z,18.07
2023-03-21T05:55:13.754Z,18.84
2023-03-21T05:57:43.391Z,18.30
2023-03-21T06:00:22.038Z,19.63
2023-03-21T06:03:14.310Z,19.34
2023-03-21T06:06:03.531Z,20.27
2023-03-21T06:08:39.036Z,20.11
2023-03-21T06:11:14.215Z,20.36
2023-03-21T06:13:43.788Z,20.00
2023-03-21T06:16:13.132Z,19.85
2023-03-21T06:18:44.316Z,19.87
2023-03-21T06:21:24.701Z,19.28
2023-03-21T06:23:55.281Z,18.97
2023-03-21T06:26:25.443Z,20.03
2023-03-21T06:28:56.697Z,19.28
2023-03-21T06:31:26.895Z,19.19
2023-03-21T06:34:04.604Z,20.17
2023-03-21T06:36:35.078Z,20.07
2023-03-21T06:39:04.803Z,19.64
2023-03-21T06:41:34.465Z,20.01
2023-03-21T06:44:06.538Z,20.30
2023-03-21T06:46:42.436Z,20.88
2023-03-21T06:49:16.485Z,20.57
2023-03-21T06:51:46.012Z,19.87
2023-03-21T06:54:21.158Z,20.81
2023-03-21T06:56:56.780Z,20.63
2023-03-21T06:59:31.337Z,19.10
2023-03-21T07:02:07.027Z,20.90
2023-03-21T07:04:45.160Z,20.55
2023-03-21T07:07:19.983Z,20.49
2023-03-21T07:09:49.699Z,19.60
2023-03-21T07:12:19.205Z,20.25
2023-03-21T07:15:08.933Z,20.66
2023-03-21T07:17:39.517Z,19.50
2023-03-21T07:20:12.755Z,20.54
2023-03-21T07:22:42.098Z,20.48
2023-03-21T07:25:12.951Z,20.36
2023-03-21T07:27:42.766Z,19.33
2023-03-21T07:30:14.036Z,18.66
2023-03-21T07:32:43.611Z,20.70
2023-03-21T07:35:17.213Z,21.56
2023-03-21T07:37:46.727Z,21.30
2023-03-21T07:40:19.343Z,21.09
2023-03-21T07:42:51.769Z,20.23
2023-03-21T07:45:31.766Z,19.04
2023-03-21T07:48:01.368Z,19.89
2023-03-21T07:50:32.805Z,20.91
2023-03-21T07:53:02.117Z,20.54
2023-03-21T07:55:34.982Z,20.60
2023-03-21T07:58:05.641Z,21.22
2023-03-21T08:00:35.310Z,20.79
2023-03-21T08:03:04.731Z,21.49
2023-03-21T08:05:39.197Z,20.91
2023-03-21T08:08:09.308Z,20.60
2023-03-21T08:10:39.252Z,20.81
2023-03-21T08:13:08.572Z,21.67
2023-03-21T08:15:40.139Z,20.59
2023-03-21T08:18:10.241Z,20.85
2023-03-21T08:20:41.343Z,21.98
2023-03-21T08:23:11.217Z,20.96
2023-03-21T08:25:41.104Z,21.07
2023-03-21T08:28:10.707Z,21.58
2023-03-21T08:30:40.882Z,21.23
2023-03-21T08:33:14.435Z,21.17
2023-03-21T08:35:46.045Z,21.04
2023-03-21T08:38:15.623Z,22.57
2023-03-21T08:40:45.193Z,22.35
2023-03-21T08:43:15.013Z,21.55
2023-03-21T08:45:44.754Z,21.81
2023-03-21T08:48:14.132Z,22.08
2023-03-21T08:50:46.323Z,20.77
2023-03-21T08:53:15.795Z,21.85
2023-03-21T08:55:45.904Z,22.11
2023-03-21T08:58:15.165Z,21.70
2023-03-21T09:00:44.963Z,21.39
2023-03-21T09:03:14.349Z,20.81
2023-03-21T09:05:46.611Z,21.96
2023-03-21T09:08:15.904Z,21.46
2023-03-21T09:10:45.451Z,21.89
2023-03-21T09:13:14.756Z,22.04
2023-03-21T09:15:45.467Z,20.70
2023-03-21T09:18:16.413Z,21.99
2023-03-21T09:20:49.068Z,20.86
2023-03-21T09:23:18.466Z,21.58
2023-03-21T09:25:48.269Z,22.35
2023-03-21T09:28:17.794Z,21.61
2023-03-21T09:30:47.691Z,23.03
2023-03-21T09:33:21.339Z,22.96
2023-03-21T09:35:58.786Z,23.41
2023-03-21T09:38:30.578Z,22.59
2023-03-21T09:41:13.230Z,23.68
2023-03-21T09:43:56.130Z,22.88
2023-03-21T09:46:36.073Z,22.79
2023-03-21T09:49:10.006Z,22.57
2023-03-21T09:51:46.286Z,24.62
2023-03-21T09:54:23.585Z,25.11
2023-03-21T09:56:56.422Z,25.39
2023-03-21T09:59:33.805Z,25.03
2023-03-21T10:02:04.405Z,24.40
2023-03-21T10:04:34.034Z,22.90
2023-03-21T10:07:06.088Z,23.67
2023-03-21T10:09:38.756Z,24.26
2023-03-21T10:12:15.193Z,25.32
2023-03-21T10:14:48.700Z,25.96
2023-03-21T10:17:27.208Z,26.64
2023-03-21T10:20:11.972Z,24.54
2023-03-21T10:22:44.251Z,24.71
2023-03-21T10:25:17.035Z,24.80
2023-03-21T10:27:48.165Z,24.93
2023-03-21T10:30:29.458Z,28.33
2023-03-21T10:33:05.237Z,26.33
2023-03-21T10:35:37.519Z,25.19
2023-03-21T10:38:16.046Z,26.72
2023-03-21T10:40:45.767Z,28.50
2023-03-21T10:43:21.841Z,29.42
2023-03-21T10:45:51.272Z,28.31
2023-03-21T10:48:21.494Z,27.28
2023-03-21T10:50:53.797Z,26.37
2023-03-21T10:53:30.839Z,25.84
2023-03-21T10:56:02.700Z,25.57
2023-03-21T10:58:39.087Z,25.79
2023-03-21T11:01:15.032Z,31.40
2023-03-21T11:03:48.405Z,32.09
2023-03-21T11:06:27.813Z,32.38
2023-03-21T11:09:04.117Z,29.07
2023-03-21T11:11:38.968Z,30.06
2023-03-21T11:14:21.820Z,28.29
2023-03-21T11:16:51.955Z,32.12
2023-03-21T11:19:30.857Z,35.63
2023-03-21T11:22:00.411Z,36.78
2023-03-21T11:24:33.558Z,38.12
2023-03-21T11:27:07.163Z,37.56
2023-03-21T11:29:39.035Z,35.43
2023-03-21T11:32:14.187Z,33.67
2023-03-21T11:34:49.020Z,38.50
2023-03-21T11:37:30.017Z,37.33
2023-03-21T11:40:19.942Z,38.91
2023-03-21T11:42:52.888Z,36.93
2023-03-21T11:45:25.280Z,36.89
2023-03-21T11:47:56.964Z,35.54
2023-03-21T11:50:33.998Z,32.99
2023-03-21T11:53:29.121Z,28.33
2023-03-21T11:56:13.265Z,31.14
2023-03-21T11:58:53.266Z,33.91
2023-03-21T12:01:29.123Z,31.61
2023-03-21T12:04:12.938Z,30.89
2023-03-21T12:06:52.546Z,33.85
2023-03-21T12:09:39.325Z,35.19
2023-03-21T12:12:33.028Z,34.97
2023-03-21T12:15:14.614Z,40.49
2023-03-21T12:17:54.663Z,41.06
2023-03-21T12:20:31.781Z,36.26
2023-03-21T12:23:23.542Z,37.21
2023-03-21T12:26:09.637Z,41.79
2023-03-21T12:28:48.987Z,42.28
2023-03-21T12:31:25.279Z,43.64
2023-03-21T12:34:11.491Z,39.93
2023-03-21T12:36:52.868Z,35.67
2023-03-21T12:39:30.232Z,40.84
2023-03-21T12:42:20.710Z,42.46
2023-03-21T12:44:58.780Z,42.57
2023-03-21T12:47:31.691Z,41.59
2023-03-21T12:50:07.324Z,34.72
2023-03-21T12:52:40.461Z,38.81
2023-03-21T12:55:19.662Z,39.48
2023-03-21T12:57:57.493Z,39.88
2023-03-21T13:00:35.575Z,33.89
2023-03-21T13:03:10.045Z,32.44
2023-03-21T13:05:43.427Z,29.05
2023-03-21T13:08:17.733Z,29.52
2023-03-21T13:10:47.960Z,28.85
2023-03-21T13:13:27.278Z,28.53
2023-03-21T13:16:07.734Z,30.08
2023-03-21T13:18:45.354Z,30.49
2023-03-21T13:21:19.836Z,36.12
2023-03-21T13:24:02.269Z,36.79
2023-03-21T13:26:38.488Z,34.67
2023-03-21T13:29:33.386Z,32.92
2023-03-21T13:32:17.878Z,30.68
2023-03-21T13:34:55.087Z,31.81
2023-03-21T13:37:26.858Z,31.16
2023-03-21T13:40:09.484Z,31.93
2023-03-21T13:42:46.589Z,38.26
2023-03-21T13:45:28.407Z,41.42
2023-03-21T13:48:00.938Z,40.33
2023-03-21T13:50:52.709Z,38.44
2023-03-21T13:53:26.444Z,38.20
2023-03-21T13:56:24.490Z,36.69
2023-03-21T13:58:59.050Z,35.66
2023-03-21T14:01:35.438Z,36.53
2023-03-21T14:04:16.654Z,35.45
2023-03-21T14:06:51.530Z,39.24
2023-03-21T14:09:27.229Z,37.22
2023-03-21T14:12:04.057Z,38.99
2023-03-21T14:14:41.425Z,38.01
2023-03-21T14:17:23.249Z,34.71
2023-03-21T14:19:56.469Z,36.05
2023-03-21T14:22:26.187Z,36.65
2023-03-21T14:24:59.853Z,39.09
2023-03-21T14:27:31.414Z,39.50
2023-03-21T14:30:02.098Z,37.23
2023-03-21T14:32:32.269Z,38.01
2023-03-21T14:35:04.371Z,38.16
2023-03-21T14:37:38.797Z,37.41
2023-03-21T14:40:19.721Z,35.86
2023-03-21T14:42:50.601Z,35.35
2023-03-21T14:45:23.020Z,36.83
2023-03-21T14:48:00.129Z,35.77
2023-03-21T14:50:42.067Z,37.52
2023-03-21T14:53:19.867Z,34.72
2023-03-21T14:55:57.446Z,35.41
2023-03-21T14:58:27.980Z,34.45
2023-03-21T15:01:04.485Z,33.92
2023-03-21T15:03:34.870Z,33.42
2023-03-21T15:06:06.428Z,28.84
2023-03-21T15:08:35.677Z,27.56
2023-03-21T15:11:08.344Z,28.18
2023-03-21T15:13:45.510Z,26.91
2023-03-21T15:16:15.674Z,26.35
2023-03-21T15:18:46.848Z,24.81
2023-03-21T15:21:23.454Z,24.98
2023-03-21T15:23:55.900Z,25.43
2023-03-21T15:26:27.854Z,24.89
2023-03-21T15:29:00.466Z,25.15
2023-03-21T15:31:33.080Z,24.90
2023-03-21T15:34:02.818Z,24.44
2023-03-21T15:36:37.880Z,24.95
2023-03-21T15:39:09.771Z,24.70
2023-03-21T15:41:39.454Z,24.58
2023-03-21T15:44:15.996Z,24.71
2023-03-21T15:46:48.412Z,24.54
2023-03-21T15:49:22.918Z,24.46
2023-03-21T15:51:59.038Z,23.72
2023-03-21T15:54:31.231Z,22.40
2023-03-21T15:57:04.945Z,23.29
2023-03-21T15:59:38.792Z,23.29
2023-03-21T16:02:17.904Z,23.78
2023-03-21T16:04:58.362Z,23.21
2023-03-21T16:07:29.585Z,23.59
2023-03-21T16:10:04.674Z,23.82
2023-03-21T16:12:35.321Z,23.81
2023-03-21T16:15:05.247Z,23.35
2023-03-21T16:17:37.829Z,23.88
2023-03-21T16:20:20.347Z,23.07
2023-03-21T16:22:51.862Z,22.78
2023-03-21T16:25:21.803Z,22.89
2023-03-21T16:27:51.911Z,22.20
2023-03-21T16:30:22.940Z,22.73
2023-03-21T16:32:53.197Z,22.35
2023-03-21T16:35:23.728Z,22.36
2023-03-21T16:37:54.853Z,22.92
2023-03-21T16:40:29.469Z,23.17
2023-03-21T16:42:59.283Z,23.11
2023-03-21T16:45:30.506Z,23.10
2023-03-21T16:48:01.055Z,21.76
2023-03-21T16:50:34.273Z,22.48
2023-03-21T16:53:06.152Z,22.04
2023-03-21T16:55:35.834Z,21.71
2023-03-21T16:58:07.023Z,22.13
2023-03-21T17:00:36.597Z,21.79
2023-03-21T17:03:15.784Z,21.85
2023-03-21T17:05:45.511Z,21.82
2023-03-21T17:08:20.965Z,22.17
2023-03-21T17:10:50.627Z,21.56
2023-03-21T17:13:20.169Z,21.70
2023-03-21T17:15:49.630Z,21.94
2023-03-21T17:18:19.461Z,21.74
2023-03-21T17:20:48.811Z,21.96
2023-03-21T17:23:19.782Z,21.98
2023-03-21T17:25:49.051Z,21.62
2023-03-21T17:28:18.935Z,22.19
2023-03-21T17:30:48.400Z,21.38
2023-03-21T17:33:18.150Z,22.04
2023-03-21T17:35:47.571Z,22.56
2023-03-21T17:38:19.956Z,22.62
2023-03-21T17:40:50.532Z,22.91
2023-03-21T17:43:23.372Z,22.92
2023-03-21T17:45:53.270Z,23.06
2023-03-21T17:48:23.025Z,22.90
2023-03-21T17:50:52.591Z,21.94
2023-03-21T17:53:23.561Z,22.47
2023-03-21T17:55:52.952Z,23.38
2023-03-21T17:58:22.701Z,23.92
2023-03-21T18:00:52.109Z,23.20
2023-03-21T18:03:21.966Z,23.21
2023-03-21T18:05:51.823Z,22.87
2023-03-21T18:08:22.759Z,22.74
2023-03-21T18:10:52.836Z,22.51
2023-03-21T18:13:22.514Z,22.81
2023-03-21T18:15:52.898Z,22.44
2023-03-21T18:18:23.066Z,22.78
2023-03-21T18:20:54.292Z,22.49
2023-03-21T18:23:25.723Z,22.12
2023-03-21T18:25:55.540Z,22.21
2023-03-21T18:28:25.513Z,21.98
2023-03-21T18:31:16.839Z,22.04
2023-03-21T18:33:46.455Z,21.95
2023-03-21T18:36:24.663Z,21.94
2023-03-21T18:38:56.983Z,22.08
2023-03-21T18:41:26.329Z,22.10
2023-03-21T18:44:02.967Z,22.62
2023-03-21T18:46:47.064Z,22.51
2023-03-21T18:50:02.160Z,21.97
2023-03-21T18:52:09.040Z,22.60
2023-03-21T18:54:40.721Z,22.40
2023-03-21T19:00:00.043Z,22.99
2023-03-21T19:02:30.135Z,23.32
2023-03-21T19:05:00.020Z,22.40
2023-03-21T19:07:29.989Z,22.57
2023-03-21T19:10:17.011Z,22.65
2023-03-21T19:12:47.816Z,22.05
2023-03-21T19:15:19.904Z,22.36
2023-03-21T19:20:44.634Z,21.48
2023-03-21T19:23:14.679Z,20.95
2023-03-21T19:25:46.001Z,21.56
2023-03-21T19:28:15.446Z,22.13
2023-03-21T19:30:50.076Z,21.28
2023-03-21T19:33:21.064Z,21.36
2023-03-21T19:36:10.879Z,21.15
2023-03-21T19:38:41.507Z,20.31
2023-03-21T19:41:12.720Z,21.01
2023-03-21T19:43:52.863Z,20.86
2023-03-21T19:46:25.341Z,21.13
2023-03-21T19:48:56.448Z,21.46
2023-03-21T19:51:30.127Z,21.15
2023-03-21T19:54:00.193Z,21.05
2023-03-21T19:56:31.737Z,20.92
2023-03-21T19:59:01.737Z,20.81
2023-03-21T20:01:32.482Z,20.08
2023-03-21T20:04:02.223Z,20.68
2023-03-21T20:06:32.301Z,20.64
2023-03-21T20:11:53.528Z,20.91
2023-03-21T20:14:22.818Z,20.72
2023-03-21T20:16:55.400Z,20.63
2023-03-21T20:19:25.446Z,20.93
2023-03-21T20:21:59.910Z,20.97
2023-03-21T20:24:31.047Z,20.80
2023-03-21T20:27:02.093Z,20.88
2023-03-21T20:30:08.146Z,19.84
2023-03-21T20:32:21.313Z,20.14
2023-03-21T20:34:51.094Z,20.71
2023-03-21T20:37:24.249Z,20.63
2023-03-21T20:39:53.827Z,20.57
2023-03-21T20:42:24.897Z,21.25
2023-03-21T20:44:59.358Z,21.33
2023-03-21T20:47:30.417Z,20.92
2023-03-21T20:49:59.879Z,21.08
2023-03-21T20:55:20.054Z,20.80
2023-03-21T20:57:51.155Z,20.81
2023-03-21T21:00:22.398Z,20.61
2023-03-21T21:02:52.132Z,20.94
2023-03-21T21:05:27.847Z,21.03
2023-03-21T21:07:59.017Z,20.94
2023-03-21T21:10:28.873Z,20.94
2023-03-21T21:13:00.040Z,21.08
2023-03-21T21:15:29.449Z,20.97
2023-03-21T21:18:07.808Z,20.95
2023-03-21T21:20:38.631Z,21.35
2023-03-21T21:23:10.208Z,21.51
2023-03-21T21:25:39.821Z,21.59
2023-03-21T21:28:11.876Z,21.46
2023-03-21T21:30:42.992Z,21.29
2023-03-21T21:33:14.504Z,21.58
2023-03-21T21:35:47.710Z,20.61
2023-03-21T21:38:19.381Z,21.06
2023-03-21T21:40:49.832Z,21.36
2023-03-21T21:43:21.382Z,20.60
2023-03-21T21:45:51.780Z,21.44
2023-03-21T21:48:21.478Z,21.69
2023-03-21T21:50:54.162Z,21.72
2023-03-21T21:53:24.214Z,21.43
2023-03-21T21:55:54.175Z,21.43
2023-03-21T21:58:26.048Z,21.31
2023-03-21T22:00:59.304Z,21.83
2023-03-21T22:03:36.548Z,21.98
2023-03-21T22:06:06.264Z,22.20
2023-03-21T22:08:35.983Z,22.36
2023-03-21T22:11:06.731Z,22.06
2023-03-21T22:13:38.057Z,22.55
2023-03-21T22:16:08.124Z,22.05
2023-03-21T22:18:38.667Z,22.19
2023-03-21T22:21:08.738Z,22.03
2023-03-21T22:23:41.466Z,22.07
2023-03-21T22:26:11.811Z,22.60
2023-03-21T22:28:43.489Z,22.75
2023-03-21T22:31:15.678Z,22.60
2023-03-21T22:33:45.992Z,22.40
2023-03-21T22:36:15.543Z,22.30
2023-03-21T22:38:44.976Z,22.58
2023-03-21T22:41:14.388Z,23.06
2023-03-21T22:43:45.429Z,23.36
2023-03-21T22:46:14.899Z,22.88
2023-03-21T22:48:44.540Z,22.71
2023-03-21T22:51:13.848Z,22.86
2023-03-21T22:53:43.424Z,22.96
2023-03-21T22:56:12.848Z,23.12
2023-03-21T22:58:42.555Z,22.97
2023-03-21T23:01:13.253Z,22.10
2023-03-21T23:03:42.963Z,23.45
2023-03-21T23:06:12.476Z,23.44
2023-03-21T23:08:42.069Z,23.25
2023-03-21T23:11:12.322Z,23.45
2023-03-21T23:13:42.519Z,23.44
2023-03-21T23:16:13.235Z,23.20
2023-03-21T23:18:43.111Z,23.15
2023-03-21T23:21:13.472Z,23.19
2023-03-21T23:23:50.242Z,23.08
2023-03-21T23:26:21.077Z,22.68
2023-03-21T23:28:51.195Z,21.89
2023-03-21T23:31:24.111Z,21.77
2023-03-21T23:33:54.522Z,20.71
2023-03-21T23:36:24.130Z,20.71
2023-03-21T23:38:54.086Z,20.70
2023-03-21T23:41:25.743Z,21.07
2023-03-21T23:43:55.327Z,20.74
2023-03-21T23:46:26.182Z,21.14
2023-03-21T23:48:55.695Z,20.82
2023-03-21T23:51:25.062Z,21.00
2023-03-21T23:53:56.631Z,21.07
2023-03-21T23:56:27.617Z,20.55
2023-03-21T23:58:59.551Z,20.56
